Aviation Digital Data Service (ADDS)

Output produced by METARs form (1544 UTC 23 January 2019)
found at http://www.aviationweather.gov/metar/data/
 
Forecast for: KELP (EL PASO , TX, US)
Text: KELP 231132Z 2312/2412 VRB04KT P6SM SKC
Forecast period: 1200 to 1800 UTC 23 January 2019
Forecast type: FROM: standard forecast or significant change
Winds: variable direction winds at 5 MPH (4 knots; 2.1 m/s)
Visibility: 6 or more miles 10+ km)
Clouds: clear skies
Weather: no significant weather forecast for this period
Text: FM231800 25008KT P6SM FEW250
Forecast period: 1800 UTC 23 January 2019 to 1200 UTC 24 January 2019
Forecast type: FROM: standard forecast or significant change
Winds: from the WSW (250 degrees) at 9 MPH (8 knots; 4.1 m/s)
Visibility: 6 or more miles 10+ km)
Ceiling: at least 12,000 feet AGL
Clouds: few clouds at 25000 feet AGL
Weather: no significant weather forecast for this period